Search for airport 
image banner adimage banner adimage banner ad
image banner ad

KDNS - Denison Muni

Located in Denison, United States

ICAO - DNS, IATA - DNS

Data provided by Airmate  

General information

Coordinates: N41°59'12" W95°22'50"
Elevation is 1274 feet MSL.
Magnetic variation is 04° East
View others Airports in Iowa

Operational data

Special qualification required
Current time UTC:
Current local time:
Weather
METAR: KDNS 150915Z AUTO 00000KT 10SM CLR 14/10 A3013 RMK AO2
View NOTAMs / SUP AIP / TFR affecting this airport [VIEW]
Communications frequencies: [VIEW]

Runways:

RWY identifierQFULength (ft)Width (ft)SurfaceLDA (ft)
12124°500075CONC
30304°500075CONC
18178°2019105GRASS
36358°2019105GRASS

Airport contact information

Address: Denison United States

Satellite view of KDNS